createdAt,value
2018-09-11T00:04:45.038Z,100909.00
2018-09-11T00:09:48.124Z,100904.00
2018-09-11T00:14:51.262Z,100903.00
2018-09-11T00:19:54.325Z,100898.00
2018-09-11T00:24:58.507Z,100901.00
2018-09-11T00:30:02.759Z,100889.00
2018-09-11T00:35:06.974Z,100893.00
2018-09-11T00:40:09.791Z,100889.00
2018-09-11T00:45:12.967Z,100888.00
2018-09-11T00:50:16.035Z,100887.00
2018-09-11T00:55:19.094Z,100891.00
2018-09-11T01:00:22.191Z,100901.00
2018-09-11T01:05:25.219Z,100904.00
2018-09-11T01:10:28.366Z,100908.00
2018-09-11T01:15:31.421Z,100896.00
2018-09-11T01:20:34.499Z,100913.00
2018-09-11T01:25:37.587Z,100914.00
2018-09-11T01:30:40.692Z,100919.00
2018-09-11T01:35:43.771Z,100922.00
2018-09-11T01:40:46.842Z,100928.00
2018-09-11T01:45:50.012Z,100927.00
2018-09-11T01:50:53.038Z,100935.00
2018-09-11T01:55:56.150Z,100931.00
2018-09-11T02:00:59.239Z,100939.00
2018-09-11T02:06:04.336Z,100935.00
2018-09-11T02:11:07.420Z,100937.00
2018-09-11T02:16:10.459Z,100940.00
2018-09-11T02:21:13.758Z,100947.00
2018-09-11T02:26:16.772Z,100942.00
2018-09-11T02:31:19.916Z,100949.00
2018-09-11T02:36:22.931Z,100953.00
2018-09-11T02:41:26.139Z,100952.00
2018-09-11T02:46:29.184Z,100955.00
2018-09-11T02:51:32.504Z,100966.00
2018-09-11T02:56:35.577Z,100969.00
2018-09-11T03:01:38.674Z,100977.00
2018-09-11T03:06:41.776Z,100982.00
2018-09-11T03:11:44.907Z,100983.00
2018-09-11T03:16:48.011Z,100985.00
2018-09-11T03:21:51.023Z,100983.00
2018-09-11T03:26:54.050Z,100986.00
2018-09-11T03:31:57.070Z,100989.00
2018-09-11T03:37:00.102Z,100983.00
2018-09-11T03:42:06.536Z,100981.00
2018-09-11T03:47:09.601Z,100971.00
2018-09-11T03:52:12.704Z,100977.00
2018-09-11T03:57:15.721Z,100987.00
2018-09-11T04:02:18.791Z,100989.00
2018-09-11T04:07:21.914Z,100996.00
2018-09-11T04:12:25.069Z,100989.00
2018-09-11T04:17:32.744Z,100997.00
2018-09-11T04:22:36.967Z,100998.00
2018-09-11T04:27:40.146Z,100994.00
2018-09-11T04:32:43.238Z,100975.00
2018-09-11T04:37:46.359Z,100977.00
2018-09-11T04:42:49.710Z,100976.00
2018-09-11T04:47:52.885Z,100972.00
2018-09-11T04:52:56.062Z,100972.00
2018-09-11T04:57:59.373Z,100982.00
2018-09-11T05:03:02.894Z,100983.00
2018-09-11T05:08:05.962Z,100988.00
2018-09-11T05:13:09.021Z,100990.00
2018-09-11T05:18:12.125Z,100994.00
2018-09-11T05:23:15.770Z,101004.00
2018-09-11T05:28:19.109Z,101006.00
2018-09-11T05:33:22.350Z,101013.00
2018-09-11T05:38:25.491Z,101018.00
2018-09-11T05:43:28.606Z,101033.00
2018-09-11T05:48:31.756Z,101047.00
2018-09-11T05:53:35.067Z,101060.00
2018-09-11T05:58:38.143Z,101059.00
2018-09-11T06:03:41.463Z,101067.00
2018-09-11T06:08:44.554Z,101072.00
2018-09-11T06:13:47.628Z,101074.00
2018-09-11T06:18:50.727Z,101088.00
2018-09-11T06:23:53.885Z,101090.00
2018-09-11T06:28:57.503Z,101109.00
2018-09-11T06:34:01.673Z,101106.00
2018-09-11T06:39:07.363Z,101120.00
2018-09-11T06:44:10.469Z,101112.00
2018-09-11T06:49:13.562Z,101117.00
2018-09-11T06:54:16.639Z,101105.00
2018-09-11T06:59:19.755Z,101092.00
2018-09-11T07:04:22.852Z,101104.00
2018-09-11T07:09:25.927Z,101113.00
2018-09-11T07:14:29.014Z,101096.00
2018-09-11T07:19:32.241Z,101100.00
2018-09-11T07:24:35.310Z,101108.00
2018-09-11T07:29:38.500Z,101111.00
2018-09-11T07:34:41.677Z,101125.00
2018-09-11T07:39:44.718Z,101123.00
2018-09-11T07:44:47.915Z,101125.00
2018-09-11T07:49:51.019Z,101132.00
2018-09-11T07:54:54.146Z,101141.00
2018-09-11T07:59:57.524Z,101146.00
2018-09-11T08:05:02.650Z,101146.00
2018-09-11T08:10:06.117Z,101147.00
2018-09-11T08:15:09.306Z,101146.00
2018-09-11T08:20:13.684Z,101155.00
2018-09-11T08:25:16.877Z,101141.00
2018-09-11T08:30:20.048Z,101152.00
2018-09-11T08:35:23.405Z,101154.00
2018-09-11T08:40:26.585Z,101142.00
2018-09-11T08:45:30.335Z,101135.00
2018-09-11T08:50:33.406Z,101152.00
2018-09-11T08:55:36.497Z,101141.00
2018-09-11T09:00:39.775Z,101145.00
2018-09-11T09:05:42.987Z,101155.00
2018-09-11T09:10:46.094Z,101147.00
2018-09-11T09:15:49.462Z,101141.00
2018-09-11T09:20:52.617Z,101136.00
2018-09-11T09:25:56.123Z,101124.00
2018-09-11T09:30:59.335Z,101127.00
2018-09-11T09:36:04.415Z,101109.00
2018-09-11T09:41:07.508Z,101102.00
2018-09-11T09:46:11.101Z,101094.00
2018-09-11T09:51:14.544Z,101095.00
2018-09-11T09:56:17.633Z,101109.00
2018-09-11T10:01:26.470Z,101100.00
2018-09-11T10:06:29.577Z,101090.00
2018-09-11T10:11:32.642Z,101090.00
2018-09-11T10:16:35.931Z,101077.00
2018-09-11T10:21:39.079Z,101075.00
2018-09-11T10:26:42.170Z,101076.00
2018-09-11T10:31:45.259Z,101075.00
2018-09-11T10:36:48.494Z,101072.00
2018-09-11T10:41:51.610Z,101057.00
2018-09-11T10:46:54.747Z,101057.00
2018-09-11T10:51:57.994Z,101043.00
2018-09-11T10:57:02.236Z,101044.00
2018-09-11T11:02:05.492Z,101029.00
2018-09-11T11:07:08.587Z,101027.00
2018-09-11T11:12:11.651Z,101028.00
2018-09-11T11:17:14.744Z,101016.00
2018-09-11T11:22:18.011Z,101014.00
2018-09-11T11:27:21.233Z,101004.00
2018-09-11T11:32:24.331Z,101015.00
2018-09-11T11:37:27.619Z,101011.00
2018-09-11T11:42:30.570Z,101012.00
2018-09-11T11:47:33.690Z,101014.00
2018-09-11T11:52:37.196Z,101004.00
2018-09-11T11:57:40.803Z,101006.00
2018-09-11T12:02:44.095Z,100995.00
2018-09-11T12:07:47.283Z,101008.00
2018-09-11T12:12:50.515Z,100990.00
2018-09-11T12:17:53.695Z,100986.00
2018-09-11T12:22:56.902Z,100993.00
2018-09-11T12:27:59.968Z,100983.00
2018-09-11T12:33:06.737Z,100981.00
2018-09-11T12:38:09.793Z,100984.00
2018-09-11T12:43:12.897Z,100982.00
2018-09-11T12:48:16.430Z,100978.00
2018-09-11T12:53:19.364Z,100967.00
2018-09-11T12:58:22.516Z,100969.00
2018-09-11T13:03:25.643Z,100968.00
2018-09-11T13:08:29.174Z,100953.00
2018-09-11T13:13:32.288Z,100953.00
2018-09-11T13:18:35.432Z,100950.00
2018-09-11T13:23:38.605Z,100958.00
2018-09-11T13:28:42.303Z,100949.00
2018-09-11T13:33:45.761Z,100938.00
2018-09-11T13:38:48.816Z,100940.00
2018-09-11T13:43:51.886Z,100934.00
2018-09-11T13:48:55.038Z,100928.00
2018-09-11T13:53:58.242Z,100932.00
2018-09-11T13:59:02.270Z,100923.00
2018-09-11T14:04:05.354Z,100918.00
2018-09-11T14:09:12.345Z,100920.00
2018-09-11T14:14:15.736Z,100916.00
2018-09-11T14:19:18.810Z,100914.00
2018-09-11T14:24:22.513Z,100916.00
2018-09-11T14:29:25.759Z,100906.00
2018-09-11T14:34:29.405Z,100914.00
2018-09-11T14:39:32.468Z,100903.00
2018-09-11T14:44:35.623Z,100898.00
2018-09-11T14:49:38.708Z,100902.00
2018-09-11T14:54:42.866Z,100895.00
2018-09-11T14:59:45.994Z,100897.00
2018-09-11T15:04:49.079Z,100895.00
2018-09-11T15:09:52.232Z,100897.00
2018-09-11T15:14:55.441Z,100894.00
2018-09-11T15:19:58.555Z,100889.00
2018-09-11T15:25:02.741Z,100880.00
2018-09-11T15:30:05.920Z,100887.00
2018-09-11T15:35:08.993Z,100878.00
2018-09-11T15:40:12.212Z,100869.00
2018-09-11T15:45:15.470Z,100859.00
2018-09-11T15:50:18.610Z,100864.00
2018-09-11T15:55:21.834Z,100857.00
2018-09-11T16:00:24.952Z,100851.00
2018-09-11T16:05:28.082Z,100848.00
2018-09-11T16:10:31.244Z,100826.00
2018-09-11T16:15:34.373Z,100833.00
2018-09-11T16:20:38.678Z,100823.00
2018-09-11T16:25:41.893Z,100826.00
2018-09-11T16:30:45.335Z,100822.00
2018-09-11T16:35:48.426Z,100813.00
2018-09-11T16:40:51.537Z,100812.00
2018-09-11T16:45:54.712Z,100813.00
2018-09-11T16:50:58.041Z,100813.00
2018-09-11T16:56:01.893Z,100812.00
2018-09-11T17:01:05.733Z,100813.00
2018-09-11T17:06:09.019Z,100816.00
2018-09-11T17:11:12.251Z,100809.00
2018-09-11T17:16:15.355Z,100812.00
2018-09-11T17:21:18.432Z,100796.00
2018-09-11T17:26:21.548Z,100807.00
2018-09-11T17:31:24.751Z,100815.00
2018-09-11T17:36:27.954Z,100805.00
2018-09-11T17:41:31.053Z,100806.00
2018-09-11T17:46:35.319Z,100806.00
2018-09-11T17:51:38.487Z,100803.00
2018-09-11T17:56:41.709Z,100818.00
2018-09-11T18:01:44.952Z,100818.00
2018-09-11T18:06:48.065Z,100808.00
2018-09-11T18:11:51.432Z,100813.00
2018-09-11T18:16:54.591Z,100811.00
2018-09-11T18:21:57.859Z,100824.00
2018-09-11T18:27:02.135Z,100820.00
2018-09-11T18:32:05.319Z,100813.00
2018-09-11T18:37:08.616Z,100814.00
2018-09-11T18:42:11.815Z,100814.00
2018-09-11T18:47:15.170Z,100813.00
2018-09-11T18:52:18.454Z,100811.00
2018-09-11T18:57:21.732Z,100817.00
2018-09-11T19:02:24.972Z,100813.00
2018-09-11T19:07:28.079Z,100820.00
2018-09-11T19:12:31.425Z,100810.00
2018-09-11T19:17:34.523Z,100821.00
2018-09-11T19:22:37.851Z,100822.00
2018-09-11T19:27:40.985Z,100819.00
2018-09-11T19:32:44.172Z,100818.00
2018-09-11T19:37:47.471Z,100817.00
2018-09-11T19:42:50.774Z,100810.00
2018-09-11T19:47:53.893Z,100815.00
2018-09-11T19:52:56.934Z,100814.00
2018-09-11T19:58:00.116Z,100815.00
2018-09-11T20:03:04.113Z,100816.00
2018-09-11T20:08:07.333Z,100818.00
2018-09-11T20:13:10.412Z,100815.00
2018-09-11T20:18:13.459Z,100815.00
2018-09-11T20:23:16.513Z,100814.00
2018-09-11T20:28:19.944Z,100814.00
2018-09-11T20:33:23.284Z,100813.00
2018-09-11T20:38:26.584Z,100806.00
2018-09-11T20:43:30.092Z,100801.00
2018-09-11T20:48:33.304Z,100806.00
2018-09-11T20:53:36.602Z,100804.00
2018-09-11T20:58:39.672Z,100803.00
2018-09-11T21:03:43.076Z,100816.00
2018-09-11T21:08:46.204Z,100819.00
2018-09-11T21:13:49.622Z,100822.00
2018-09-11T21:18:52.874Z,100807.00
2018-09-11T21:23:55.976Z,100810.00
2018-09-11T21:28:59.065Z,100813.00
2018-09-11T21:34:03.833Z,100816.00
2018-09-11T21:39:09.877Z,100810.00
2018-09-11T21:44:13.013Z,100816.00
2018-09-11T21:49:16.100Z,100807.00
2018-09-11T21:54:19.225Z,100819.00
2018-09-11T21:59:22.543Z,100810.00
2018-09-11T22:04:25.611Z,100813.00
2018-09-11T22:09:28.859Z,100806.00
2018-09-11T22:14:32.149Z,100813.00
2018-09-11T22:19:35.964Z,100802.00
2018-09-11T22:24:39.332Z,100817.00
2018-09-11T22:29:42.488Z,100811.00
2018-09-11T22:34:45.528Z,100804.00
2018-09-11T22:39:48.632Z,100802.00
2018-09-11T22:44:51.758Z,100796.00
2018-09-11T22:49:54.804Z,100799.00
2018-09-11T22:54:57.931Z,100794.00
2018-09-11T23:00:02.760Z,100789.00
2018-09-11T23:05:05.791Z,100780.00
2018-09-11T23:10:09.912Z,100788.00
2018-09-11T23:15:13.009Z,100788.00
2018-09-11T23:20:16.273Z,100793.00
2018-09-11T23:25:19.335Z,100791.00
2018-09-11T23:30:22.510Z,100779.00
2018-09-11T23:35:25.627Z,100770.00
2018-09-11T23:40:28.723Z,100779.00
2018-09-11T23:50:41.161Z,100776.00
2018-09-11T23:55:44.424Z,100788.00
